Napas, Russia
Current Conditions -  °F | °C
As of 1:30 AM on Thursday 27 Nov 2014 (Local Time) from USNN Reporting Station
Blowing Snow Blowing Snow  
Wind Chill: -38°   Ceiling: Unl
Heat Index: -17°   Visibility: 6mi
Dew Point: -26°   Wind: 11mph
Humidity: 64%   Direction: 340°NNW
Pressure: 29.71"   Gusts: 18mph
Location:  59.85°N, 81.97°E
Report Text: USNN 261830Z 34005G08MPS 9999 DRSN SKC M27/M32 Q1006 NOSIGRMK QFE750 03410347
Loading
Personal Weather Stations






























Interactive Weather Map New forecast layout! Learn more

10-Day Weather Forecast

Advertisements
Track Severe Weather on mobile